sensor_id;sensor_type;location;lat;lon;timestamp;P1;durP1;ratioP1;P2;durP2;ratioP2
21955;SDS011;11142;49.930;8.606;2023-10-31T00:00:01;2.72;;;1.48;;
21955;SDS011;11142;49.930;8.606;2023-10-31T00:05:01;1.35;;;1.20;;
21955;SDS011;11142;49.930;8.606;2023-10-31T00:07:30;4.45;;;1.23;;
21955;SDS011;11142;49.930;8.606;2023-10-31T00:09:59;0.95;;;0.88;;
21955;SDS011;11142;49.930;8.606;2023-10-31T00:12:27;2.60;;;0.98;;
21955;SDS011;11142;49.930;8.606;2023-10-31T00:14:55;1.70;;;1.08;;
21955;SDS011;11142;49.930;8.606;2023-10-31T00:17:24;1.48;;;0.80;;
21955;SDS011;11142;49.930;8.606;2023-10-31T00:19:52;0.77;;;0.60;;
21955;SDS011;11142;49.930;8.606;2023-10-31T00:22:20;0.65;;;0.65;;
21955;SDS011;11142;49.930;8.606;2023-10-31T00:24:48;11.90;;;1.00;;
21955;SDS011;11142;49.930;8.606;2023-10-31T00:27:16;0.75;;;0.63;;
21955;SDS011;11142;49.930;8.606;2023-10-31T00:29:43;0.60;;;0.60;;
21955;SDS011;11142;49.930;8.606;2023-10-31T00:32:11;1.73;;;0.70;;
21955;SDS011;11142;49.930;8.606;2023-10-31T00:34:43;2.67;;;0.70;;
21955;SDS011;11142;49.930;8.606;2023-10-31T00:37:13;0.80;;;0.70;;
21955;SDS011;11142;49.930;8.606;2023-10-31T00:39:41;3.75;;;1.02;;
21955;SDS011;11142;49.930;8.606;2023-10-31T00:42:09;1.05;;;0.80;;
21955;SDS011;11142;49.930;8.606;2023-10-31T00:44:36;3.10;;;1.17;;
21955;SDS011;11142;49.930;8.606;2023-10-31T00:47:05;1.25;;;0.85;;
21955;SDS011;11142;49.930;8.606;2023-10-31T00:49:33;0.77;;;0.77;;
21955;SDS011;11142;49.930;8.606;2023-10-31T00:52:03;1.85;;;0.80;;
21955;SDS011;11142;49.930;8.606;2023-10-31T00:54:31;1.25;;;0.68;;
21955;SDS011;11142;49.930;8.606;2023-10-31T00:56:59;0.98;;;0.70;;
21955;SDS011;11142;49.930;8.606;2023-10-31T00:59:27;1.15;;;0.82;;
21955;SDS011;11142;49.930;8.606;2023-10-31T01:01:56;1.20;;;0.88;;
21955;SDS011;11142;49.930;8.606;2023-10-31T01:04:24;1.33;;;0.70;;
21955;SDS011;11142;49.930;8.606;2023-10-31T01:06:52;0.90;;;0.63;;
21955;SDS011;11142;49.930;8.606;2023-10-31T01:09:22;1.40;;;1.30;;
21955;SDS011;11142;49.930;8.606;2023-10-31T01:11:50;1.00;;;0.90;;
21955;SDS011;11142;49.930;8.606;2023-10-31T01:14:18;2.40;;;0.70;;
21955;SDS011;11142;49.930;8.606;2023-10-31T01:16:46;1.25;;;1.00;;
21955;SDS011;11142;49.930;8.606;2023-10-31T01:19:14;1.58;;;1.02;;
21955;SDS011;11142;49.930;8.606;2023-10-31T01:21:43;1.27;;;1.08;;
21955;SDS011;11142;49.930;8.606;2023-10-31T01:24:11;1.00;;;0.90;;
21955;SDS011;11142;49.930;8.606;2023-10-31T01:26:40;1.25;;;1.10;;
21955;SDS011;11142;49.930;8.606;2023-10-31T01:29:08;1.02;;;0.90;;
21955;SDS011;11142;49.930;8.606;2023-10-31T01:31:36;1.48;;;1.10;;
21955;SDS011;11142;49.930;8.606;2023-10-31T01:34:22;1.08;;;1.00;;
21955;SDS011;11142;49.930;8.606;2023-10-31T01:36:50;1.38;;;1.02;;
21955;SDS011;11142;49.930;8.606;2023-10-31T01:39:18;2.63;;;1.20;;
21955;SDS011;11142;49.930;8.606;2023-10-31T01:41:48;1.65;;;1.05;;
21955;SDS011;11142;49.930;8.606;2023-10-31T01:44:16;1.95;;;1.58;;
21955;SDS011;11142;49.930;8.606;2023-10-31T01:46:44;1.45;;;1.35;;
21955;SDS011;11142;49.930;8.606;2023-10-31T01:49:12;1.45;;;1.33;;
21955;SDS011;11142;49.930;8.606;2023-10-31T01:51:41;1.77;;;1.42;;
21955;SDS011;11142;49.930;8.606;2023-10-31T01:54:10;1.58;;;1.27;;
21955;SDS011;11142;49.930;8.606;2023-10-31T01:56:39;1.85;;;1.48;;
21955;SDS011;11142;49.930;8.606;2023-10-31T01:59:09;1.20;;;1.10;;
21955;SDS011;11142;49.930;8.606;2023-10-31T02:01:37;4.70;;;1.00;;
21955;SDS011;11142;49.930;8.606;2023-10-31T02:04:07;0.90;;;0.90;;
21955;SDS011;11142;49.930;8.606;2023-10-31T02:06:35;1.30;;;1.08;;
21955;SDS011;11142;49.930;8.606;2023-10-31T02:09:03;1.08;;;0.80;;
21955;SDS011;11142;49.930;8.606;2023-10-31T02:11:33;1.15;;;1.00;;
21955;SDS011;11142;49.930;8.606;2023-10-31T02:14:01;1.17;;;1.00;;
21955;SDS011;11142;49.930;8.606;2023-10-31T02:16:31;1.33;;;0.90;;
21955;SDS011;11142;49.930;8.606;2023-10-31T02:18:59;3.10;;;1.00;;
21955;SDS011;11142;49.930;8.606;2023-10-31T02:21:27;1.65;;;1.10;;
21955;SDS011;11142;49.930;8.606;2023-10-31T02:23:58;2.15;;;0.70;;
21955;SDS011;11142;49.930;8.606;2023-10-31T02:26:28;2.03;;;0.88;;
21955;SDS011;11142;49.930;8.606;2023-10-31T02:28:57;1.13;;;0.93;;
21955;SDS011;11142;49.930;8.606;2023-10-31T02:31:26;1.20;;;1.10;;
21955;SDS011;11142;49.930;8.606;2023-10-31T02:33:54;1.42;;;1.10;;
21955;SDS011;11142;49.930;8.606;2023-10-31T02:36:22;0.90;;;0.90;;
21955;SDS011;11142;49.930;8.606;2023-10-31T02:38:50;1.55;;;0.93;;
21955;SDS011;11142;49.930;8.606;2023-10-31T02:41:20;1.67;;;1.00;;
21955;SDS011;11142;49.930;8.606;2023-10-31T02:43:48;2.28;;;1.10;;
21955;SDS011;11142;49.930;8.606;2023-10-31T02:46:16;7.40;;;1.10;;
21955;SDS011;11142;49.930;8.606;2023-10-31T02:48:46;0.85;;;0.85;;
21955;SDS011;11142;49.930;8.606;2023-10-31T02:51:14;1.13;;;0.93;;
21955;SDS011;11142;49.930;8.606;2023-10-31T02:53:42;1.05;;;0.93;;
21955;SDS011;11142;49.930;8.606;2023-10-31T02:56:10;1.70;;;1.00;;
21955;SDS011;11142;49.930;8.606;2023-10-31T02:58:39;1.42;;;1.10;;
21955;SDS011;11142;49.930;8.606;2023-10-31T03:01:07;1.40;;;1.20;;
21955;SDS011;11142;49.930;8.606;2023-10-31T03:03:35;2.50;;;1.30;;
21955;SDS011;11142;49.930;8.606;2023-10-31T03:06:04;1.50;;;1.40;;
21955;SDS011;11142;49.930;8.606;2023-10-31T03:08:33;2.25;;;1.73;;
21955;SDS011;11142;49.930;8.606;2023-10-31T03:11:04;1.63;;;1.33;;
21955;SDS011;11142;49.930;8.606;2023-10-31T03:13:32;2.45;;;1.85;;
21955;SDS011;11142;49.930;8.606;2023-10-31T03:16:03;2.20;;;1.70;;
21955;SDS011;11142;49.930;8.606;2023-10-31T03:18:32;2.10;;;1.60;;
21955;SDS011;11142;49.930;8.606;2023-10-31T03:21:00;1.73;;;1.60;;
21955;SDS011;11142;49.930;8.606;2023-10-31T03:23:30;3.75;;;1.73;;
21955;SDS011;11142;49.930;8.606;2023-10-31T03:25:59;2.10;;;1.73;;
21955;SDS011;11142;49.930;8.606;2023-10-31T03:28:27;5.00;;;1.35;;
21955;SDS011;11142;49.930;8.606;2023-10-31T03:30:55;4.18;;;1.40;;
21955;SDS011;11142;49.930;8.606;2023-10-31T03:33:25;1.20;;;1.10;;
21955;SDS011;11142;49.930;8.606;2023-10-31T03:35:55;1.50;;;1.17;;
21955;SDS011;11142;49.930;8.606;2023-10-31T03:38:23;1.83;;;1.02;;
21955;SDS011;11142;49.930;8.606;2023-10-31T03:40:53;2.63;;;1.52;;
21955;SDS011;11142;49.930;8.606;2023-10-31T03:43:21;1.20;;;1.10;;
21955;SDS011;11142;49.930;8.606;2023-10-31T03:45:49;1.40;;;1.30;;
21955;SDS011;11142;49.930;8.606;2023-10-31T03:48:18;3.10;;;1.20;;
21955;SDS011;11142;49.930;8.606;2023-10-31T03:50:49;1.77;;;1.30;;
21955;SDS011;11142;49.930;8.606;2023-10-31T03:53:17;1.83;;;1.30;;
21955;SDS011;11142;49.930;8.606;2023-10-31T03:55:46;1.42;;;1.33;;
21955;SDS011;11142;49.930;8.606;2023-10-31T03:58:14;5.15;;;1.30;;
21955;SDS011;11142;49.930;8.606;2023-10-31T04:00:43;2.58;;;1.20;;
21955;SDS011;11142;49.930;8.606;2023-10-31T04:03:11;1.70;;;1.48;;
21955;SDS011;11142;49.930;8.606;2023-10-31T04:05:39;2.22;;;2.03;;
21955;SDS011;11142;49.930;8.606;2023-10-31T04:08:11;1.50;;;1.30;;
21955;SDS011;11142;49.930;8.606;2023-10-31T04:10:39;4.63;;;1.42;;
21955;SDS011;11142;49.930;8.606;2023-10-31T04:13:07;3.13;;;1.60;;
21955;SDS011;11142;49.930;8.606;2023-10-31T04:15:37;1.60;;;1.30;;
21955;SDS011;11142;49.930;8.606;2023-10-31T04:18:05;4.13;;;1.48;;
21955;SDS011;11142;49.930;8.606;2023-10-31T04:20:34;1.42;;;1.33;;
21955;SDS011;11142;49.930;8.606;2023-10-31T04:23:03;1.30;;;0.98;;
21955;SDS011;11142;49.930;8.606;2023-10-31T04:25:33;1.58;;;1.42;;
21955;SDS011;11142;49.930;8.606;2023-10-31T04:28:01;2.83;;;1.20;;
21955;SDS011;11142;49.930;8.606;2023-10-31T04:30:30;1.77;;;1.42;;
21955;SDS011;11142;49.930;8.606;2023-10-31T04:32:58;2.67;;;1.40;;
21955;SDS011;11142;49.930;8.606;2023-10-31T04:35:26;2.22;;;1.40;;
21955;SDS011;11142;49.930;8.606;2023-10-31T04:37:55;2.38;;;1.30;;
21955;SDS011;11142;49.930;8.606;2023-10-31T04:40:24;1.70;;;1.30;;
21955;SDS011;11142;49.930;8.606;2023-10-31T04:42:53;1.58;;;1.38;;
21955;SDS011;11142;49.930;8.606;2023-10-31T04:45:22;2.97;;;1.80;;
21955;SDS011;11142;49.930;8.606;2023-10-31T04:47:50;1.35;;;1.25;;
21955;SDS011;11142;49.930;8.606;2023-10-31T04:50:21;1.55;;;1.33;;
21955;SDS011;11142;49.930;8.606;2023-10-31T04:52:49;2.00;;;1.38;;
21955;SDS011;11142;49.930;8.606;2023-10-31T04:55:17;1.77;;;1.35;;
21955;SDS011;11142;49.930;8.606;2023-10-31T04:57:46;1.23;;;1.13;;
21955;SDS011;11142;49.930;8.606;2023-10-31T05:00:16;1.92;;;1.40;;
21955;SDS011;11142;49.930;8.606;2023-10-31T05:02:45;1.63;;;1.42;;
21955;SDS011;11142;49.930;8.606;2023-10-31T05:05:14;5.00;;;1.50;;
21955;SDS011;11142;49.930;8.606;2023-10-31T05:07:43;1.40;;;1.30;;
21955;SDS011;11142;49.930;8.606;2023-10-31T05:10:11;1.13;;;1.02;;
21955;SDS011;11142;49.930;8.606;2023-10-31T05:12:40;1.45;;;1.30;;
21955;SDS011;11142;49.930;8.606;2023-10-31T05:15:09;3.78;;;1.30;;
21955;SDS011;11142;49.930;8.606;2023-10-31T05:17:39;1.73;;;1.38;;
21955;SDS011;11142;49.930;8.606;2023-10-31T05:20:08;4.13;;;1.35;;
21955;SDS011;11142;49.930;8.606;2023-10-31T05:22:37;1.98;;;1.10;;
21955;SDS011;11142;49.930;8.606;2023-10-31T05:25:05;2.25;;;1.38;;
21955;SDS011;11142;49.930;8.606;2023-10-31T05:27:34;2.58;;;1.13;;
21955;SDS011;11142;49.930;8.606;2023-10-31T05:30:02;2.65;;;1.30;;
21955;SDS011;11142;49.930;8.606;2023-10-31T05:32:31;1.52;;;1.20;;
21955;SDS011;11142;49.930;8.606;2023-10-31T05:35:01;1.10;;;1.08;;
21955;SDS011;11142;49.930;8.606;2023-10-31T05:37:29;2.85;;;1.15;;
21955;SDS011;11142;49.930;8.606;2023-10-31T05:39:57;2.53;;;1.15;;
21955;SDS011;11142;49.930;8.606;2023-10-31T05:42:27;1.85;;;1.40;;
21955;SDS011;11142;49.930;8.606;2023-10-31T05:44:56;1.58;;;1.23;;
21955;SDS011;11142;49.930;8.606;2023-10-31T05:47:24;1.30;;;1.20;;
21955;SDS011;11142;49.930;8.606;2023-10-31T05:49:54;2.67;;;1.30;;
21955;SDS011;11142;49.930;8.606;2023-10-31T05:52:27;2.08;;;1.38;;
21955;SDS011;11142;49.930;8.606;2023-10-31T05:54:55;2.03;;;1.27;;
21955;SDS011;11142;49.930;8.606;2023-10-31T05:57:24;2.42;;;1.27;;
21955;SDS011;11142;49.930;8.606;2023-10-31T05:59:52;5.30;;;1.20;;
21955;SDS011;11142;49.930;8.606;2023-10-31T06:02:20;1.55;;;1.20;;
21955;SDS011;11142;49.930;8.606;2023-10-31T06:04:49;1.40;;;1.08;;
21955;SDS011;11142;49.930;8.606;2023-10-31T06:07:17;2.22;;;1.30;;
21955;SDS011;11142;49.930;8.606;2023-10-31T06:09:47;0.98;;;0.80;;
21955;SDS011;11142;49.930;8.606;2023-10-31T06:12:15;2.13;;;0.88;;
21955;SDS011;11142;49.930;8.606;2023-10-31T06:14:44;1.27;;;1.15;;
21955;SDS011;11142;49.930;8.606;2023-10-31T06:17:12;4.57;;;1.10;;
21955;SDS011;11142;49.930;8.606;2023-10-31T06:19:40;1.10;;;0.95;;
21955;SDS011;11142;49.930;8.606;2023-10-31T06:22:12;1.42;;;1.25;;
21955;SDS011;11142;49.930;8.606;2023-10-31T06:24:40;1.23;;;1.00;;
21955;SDS011;11142;49.930;8.606;2023-10-31T06:27:11;1.95;;;0.88;;
21955;SDS011;11142;49.930;8.606;2023-10-31T06:29:40;2.88;;;1.02;;
21955;SDS011;11142;49.930;8.606;2023-10-31T06:32:27;0.60;;;0.57;;
21955;SDS011;11142;49.930;8.606;2023-10-31T06:34:55;3.70;;;0.85;;
21955;SDS011;11142;49.930;8.606;2023-10-31T06:37:23;3.58;;;0.85;;
21955;SDS011;11142;49.930;8.606;2023-10-31T06:39:53;1.48;;;1.05;;
21955;SDS011;11142;49.930;8.606;2023-10-31T06:42:23;1.20;;;0.68;;
21955;SDS011;11142;49.930;8.606;2023-10-31T06:44:51;2.53;;;0.80;;
21955;SDS011;11142;49.930;8.606;2023-10-31T06:47:20;1.48;;;0.93;;
21955;SDS011;11142;49.930;8.606;2023-10-31T06:49:48;1.30;;;1.00;;
21955;SDS011;11142;49.930;8.606;2023-10-31T06:52:17;1.75;;;0.98;;
21955;SDS011;11142;49.930;8.606;2023-10-31T06:54:45;1.08;;;0.80;;
21955;SDS011;11142;49.930;8.606;2023-10-31T06:57:13;1.15;;;0.70;;
21955;SDS011;11142;49.930;8.606;2023-10-31T06:59:44;1.10;;;0.70;;
21955;SDS011;11142;49.930;8.606;2023-10-31T07:02:14;0.70;;;0.70;;
21955;SDS011;11142;49.930;8.606;2023-10-31T07:04:45;1.35;;;0.77;;
21955;SDS011;11142;49.930;8.606;2023-10-31T07:07:13;0.70;;;0.65;;
21955;SDS011;11142;49.930;8.606;2023-10-31T07:09:42;1.17;;;1.00;;
21955;SDS011;11142;49.930;8.606;2023-10-31T07:12:11;1.65;;;1.10;;
21955;SDS011;11142;49.930;8.606;2023-10-31T07:14:39;1.38;;;1.00;;
21955;SDS011;11142;49.930;8.606;2023-10-31T07:17:09;0.65;;;0.65;;
21955;SDS011;11142;49.930;8.606;2023-10-31T07:19:38;2.40;;;0.82;;
21955;SDS011;11142;49.930;8.606;2023-10-31T07:22:06;4.20;;;0.80;;
21955;SDS011;11142;49.930;8.606;2023-10-31T07:24:35;1.20;;;1.00;;
21955;SDS011;11142;49.930;8.606;2023-10-31T07:27:04;1.42;;;0.90;;
21955;SDS011;11142;49.930;8.606;2023-10-31T07:29:32;2.63;;;0.75;;
21955;SDS011;11142;49.930;8.606;2023-10-31T07:32:01;1.10;;;0.90;;
21955;SDS011;11142;49.930;8.606;2023-10-31T07:34:31;1.55;;;0.90;;
21955;SDS011;11142;49.930;8.606;2023-10-31T07:37:00;1.48;;;0.98;;
21955;SDS011;11142;49.930;8.606;2023-10-31T07:39:29;1.02;;;0.60;;
21955;SDS011;11142;49.930;8.606;2023-10-31T07:41:58;1.02;;;0.90;;
21955;SDS011;11142;49.930;8.606;2023-10-31T07:44:28;1.60;;;1.40;;
21955;SDS011;11142;49.930;8.606;2023-10-31T07:46:57;2.97;;;1.73;;
21955;SDS011;11142;49.930;8.606;2023-10-31T07:49:25;1.20;;;1.00;;
21955;SDS011;11142;49.930;8.606;2023-10-31T07:51:55;1.63;;;1.25;;
21955;SDS011;11142;49.930;8.606;2023-10-31T07:54:26;2.58;;;1.52;;
21955;SDS011;11142;49.930;8.606;2023-10-31T07:56:57;3.08;;;1.75;;
21955;SDS011;11142;49.930;8.606;2023-10-31T07:59:26;1.25;;;1.00;;
21955;SDS011;11142;49.930;8.606;2023-10-31T08:01:57;0.90;;;0.80;;
21955;SDS011;11142;49.930;8.606;2023-10-31T08:04:26;4.97;;;1.00;;
21955;SDS011;11142;49.930;8.606;2023-10-31T08:07:00;1.27;;;0.80;;
21955;SDS011;11142;49.930;8.606;2023-10-31T08:09:29;1.42;;;1.10;;
21955;SDS011;11142;49.930;8.606;2023-10-31T08:11:57;1.73;;;1.13;;
21955;SDS011;11142;49.930;8.606;2023-10-31T08:14:26;1.38;;;1.08;;
21955;SDS011;11142;49.930;8.606;2023-10-31T08:16:54;3.80;;;1.15;;
21955;SDS011;11142;49.930;8.606;2023-10-31T08:19:23;2.55;;;1.10;;
21955;SDS011;11142;49.930;8.606;2023-10-31T08:21:54;1.65;;;0.93;;
21955;SDS011;11142;49.930;8.606;2023-10-31T08:24:26;1.27;;;1.02;;
21955;SDS011;11142;49.930;8.606;2023-10-31T08:26:55;1.15;;;0.90;;
21955;SDS011;11142;49.930;8.606;2023-10-31T08:29:24;1.48;;;1.02;;
21955;SDS011;11142;49.930;8.606;2023-10-31T08:31:52;1.17;;;1.02;;
21955;SDS011;11142;49.930;8.606;2023-10-31T08:34:20;1.73;;;1.05;;
21955;SDS011;11142;49.930;8.606;2023-10-31T08:36:49;4.28;;;1.20;;
21955;SDS011;11142;49.930;8.606;2023-10-31T08:39:19;1.70;;;1.00;;
21955;SDS011;11142;49.930;8.606;2023-10-31T08:41:52;1.08;;;0.90;;
21955;SDS011;11142;49.930;8.606;2023-10-31T08:44:22;1.70;;;1.00;;
21955;SDS011;11142;49.930;8.606;2023-10-31T08:46:51;1.02;;;0.90;;
21955;SDS011;11142;49.930;8.606;2023-10-31T08:49:19;2.17;;;1.10;;
21955;SDS011;11142;49.930;8.606;2023-10-31T08:51:47;3.55;;;1.17;;
21955;SDS011;11142;49.930;8.606;2023-10-31T08:54:16;4.10;;;0.82;;
21955;SDS011;11142;49.930;8.606;2023-10-31T08:56:45;2.35;;;1.30;;
21955;SDS011;11142;49.930;8.606;2023-10-31T08:59:15;2.80;;;1.10;;
21955;SDS011;11142;49.930;8.606;2023-10-31T09:01:43;2.03;;;1.00;;
21955;SDS011;11142;49.930;8.606;2023-10-31T09:04:12;3.17;;;0.85;;
21955;SDS011;11142;49.930;8.606;2023-10-31T09:06:40;2.25;;;1.08;;
21955;SDS011;11142;49.930;8.606;2023-10-31T09:09:10;1.95;;;0.75;;
21955;SDS011;11142;49.930;8.606;2023-10-31T09:11:40;1.23;;;0.70;;
21955;SDS011;11142;49.930;8.606;2023-10-31T09:14:08;1.60;;;0.57;;
21955;SDS011;11142;49.930;8.606;2023-10-31T09:16:38;0.70;;;0.70;;
21955;SDS011;11142;49.930;8.606;2023-10-31T09:19:06;2.15;;;0.63;;
21955;SDS011;11142;49.930;8.606;2023-10-31T09:21:34;0.68;;;0.60;;
21955;SDS011;11142;49.930;8.606;2023-10-31T09:24:03;0.63;;;0.47;;
21955;SDS011;11142;49.930;8.606;2023-10-31T09:26:32;3.00;;;0.85;;
21955;SDS011;11142;49.930;8.606;2023-10-31T09:29:01;1.80;;;0.73;;
21955;SDS011;11142;49.930;8.606;2023-10-31T09:31:30;1.40;;;0.60;;
21955;SDS011;11142;49.930;8.606;2023-10-31T09:34:00;1.00;;;0.55;;
21955;SDS011;11142;49.930;8.606;2023-10-31T09:36:31;0.77;;;0.65;;
21955;SDS011;11142;49.930;8.606;2023-10-31T09:39:00;0.82;;;0.40;;
21955;SDS011;11142;49.930;8.606;2023-10-31T09:41:29;0.50;;;0.50;;
21955;SDS011;11142;49.930;8.606;2023-10-31T09:43:59;2.65;;;0.70;;
21955;SDS011;11142;49.930;8.606;2023-10-31T09:46:28;0.55;;;0.40;;
21955;SDS011;11142;49.930;8.606;2023-10-31T09:48:56;0.60;;;0.60;;
21955;SDS011;11142;49.930;8.606;2023-10-31T09:51:26;0.95;;;0.63;;
21955;SDS011;11142;49.930;8.606;2023-10-31T09:53:55;2.03;;;0.60;;
21955;SDS011;11142;49.930;8.606;2023-10-31T09:56:28;1.80;;;0.50;;
21955;SDS011;11142;49.930;8.606;2023-10-31T09:59:01;2.10;;;0.60;;
21955;SDS011;11142;49.930;8.606;2023-10-31T10:01:29;2.03;;;0.47;;
21955;SDS011;11142;49.930;8.606;2023-10-31T10:03:57;0.75;;;0.52;;
21955;SDS011;11142;49.930;8.606;2023-10-31T10:06:28;2.08;;;0.50;;
21955;SDS011;11142;49.930;8.606;2023-10-31T10:08:56;1.88;;;0.57;;
21955;SDS011;11142;49.930;8.606;2023-10-31T10:11:25;0.65;;;0.50;;
21955;SDS011;11142;49.930;8.606;2023-10-31T10:13:54;2.60;;;0.70;;
21955;SDS011;11142;49.930;8.606;2023-10-31T10:16:28;1.50;;;0.80;;
21955;SDS011;11142;49.930;8.606;2023-10-31T10:18:59;3.80;;;0.90;;
21955;SDS011;11142;49.930;8.606;2023-10-31T10:21:47;1.50;;;0.60;;
21955;SDS011;11142;49.930;8.606;2023-10-31T10:24:16;1.85;;;0.55;;
21955;SDS011;11142;49.930;8.606;2023-10-31T10:26:45;0.32;;;0.32;;
21955;SDS011;11142;49.930;8.606;2023-10-31T10:29:14;1.05;;;0.70;;
21955;SDS011;11142;49.930;8.606;2023-10-31T10:31:42;0.70;;;0.43;;
21955;SDS011;11142;49.930;8.606;2023-10-31T10:34:13;0.35;;;0.35;;
21955;SDS011;11142;49.930;8.606;2023-10-31T10:36:44;1.10;;;0.43;;
21955;SDS011;11142;49.930;8.606;2023-10-31T10:39:18;4.75;;;0.70;;
21955;SDS011;11142;49.930;8.606;2023-10-31T10:41:51;0.68;;;0.50;;
21955;SDS011;11142;49.930;8.606;2023-10-31T10:44:25;1.17;;;0.45;;
21955;SDS011;11142;49.930;8.606;2023-10-31T10:47:00;1.88;;;0.82;;
21955;SDS011;11142;49.930;8.606;2023-10-31T10:49:35;1.85;;;0.80;;
21955;SDS011;11142;49.930;8.606;2023-10-31T10:52:10;0.65;;;0.50;;
21955;SDS011;11142;49.930;8.606;2023-10-31T10:54:45;0.98;;;0.57;;
21955;SDS011;11142;49.930;8.606;2023-10-31T10:57:21;1.10;;;0.40;;
21955;SDS011;11142;49.930;8.606;2023-10-31T11:00:01;0.88;;;0.52;;
21955;SDS011;11142;49.930;8.606;2023-10-31T11:02:32;0.80;;;0.60;;
21955;SDS011;11142;49.930;8.606;2023-10-31T11:05:00;3.35;;;0.77;;
21955;SDS011;11142;49.930;8.606;2023-10-31T11:07:31;0.50;;;0.50;;
21955;SDS011;11142;49.930;8.606;2023-10-31T11:10:01;2.90;;;0.63;;
21955;SDS011;11142;49.930;8.606;2023-10-31T11:12:31;1.38;;;0.50;;
21955;SDS011;11142;49.930;8.606;2023-10-31T11:15:00;1.90;;;0.55;;
21955;SDS011;11142;49.930;8.606;2023-10-31T11:17:32;3.35;;;0.50;;
21955;SDS011;11142;49.930;8.606;2023-10-31T11:20:04;1.50;;;0.60;;
21955;SDS011;11142;49.930;8.606;2023-10-31T11:22:39;4.78;;;0.60;;
21955;SDS011;11142;49.930;8.606;2023-10-31T11:25:09;1.13;;;0.63;;
21955;SDS011;11142;49.930;8.606;2023-10-31T11:27:49;0.85;;;0.40;;
21955;SDS011;11142;49.930;8.606;2023-10-31T11:30:20;3.85;;;0.70;;
21955;SDS011;11142;49.930;8.606;2023-10-31T11:32:51;3.07;;;0.90;;
21955;SDS011;11142;49.930;8.606;2023-10-31T11:35:21;2.10;;;0.90;;
21955;SDS011;11142;49.930;8.606;2023-10-31T11:38:00;3.50;;;0.60;;
21955;SDS011;11142;49.930;8.606;2023-10-31T11:40:30;1.48;;;0.60;;
21955;SDS011;11142;49.930;8.606;2023-10-31T11:43:01;0.35;;;0.32;;
21955;SDS011;11142;49.930;8.606;2023-10-31T11:45:33;3.45;;;0.85;;
21955;SDS011;11142;49.930;8.606;2023-10-31T11:48:03;2.63;;;0.65;;
21955;SDS011;11142;49.930;8.606;2023-10-31T11:50:33;1.63;;;0.60;;
21955;SDS011;11142;49.930;8.606;2023-10-31T11:53:04;3.00;;;0.47;;
21955;SDS011;11142;49.930;8.606;2023-10-31T11:55:34;4.05;;;0.50;;
21955;SDS011;11142;49.930;8.606;2023-10-31T11:58:13;2.45;;;0.55;;
21955;SDS011;11142;49.930;8.606;2023-10-31T12:00:45;3.42;;;0.55;;
21955;SDS011;11142;49.930;8.606;2023-10-31T12:03:15;7.30;;;1.10;;
21955;SDS011;11142;49.930;8.606;2023-10-31T12:05:50;0.65;;;0.50;;
21955;SDS011;11142;49.930;8.606;2023-10-31T12:08:28;2.83;;;0.90;;
21955;SDS011;11142;49.930;8.606;2023-10-31T12:11:07;5.28;;;0.80;;
21955;SDS011;11142;49.930;8.606;2023-10-31T12:13:37;0.75;;;0.55;;
21955;SDS011;11142;49.930;8.606;2023-10-31T12:16:06;1.35;;;0.75;;
21955;SDS011;11142;49.930;8.606;2023-10-31T12:18:36;1.98;;;0.60;;
21955;SDS011;11142;49.930;8.606;2023-10-31T12:21:06;1.58;;;0.57;;
21955;SDS011;11142;49.930;8.606;2023-10-31T12:23:36;2.15;;;0.60;;
21955;SDS011;11142;49.930;8.606;2023-10-31T12:26:05;2.65;;;1.33;;
21955;SDS011;11142;49.930;8.606;2023-10-31T12:28:33;2.20;;;1.23;;
21955;SDS011;11142;49.930;8.606;2023-10-31T12:31:04;3.10;;;0.88;;
21955;SDS011;11142;49.930;8.606;2023-10-31T12:33:33;4.13;;;0.70;;
21955;SDS011;11142;49.930;8.606;2023-10-31T12:36:02;11.23;;;1.20;;
21955;SDS011;11142;49.930;8.606;2023-10-31T12:38:31;5.32;;;0.85;;
21955;SDS011;11142;49.930;8.606;2023-10-31T12:41:01;1.25;;;0.60;;
21955;SDS011;11142;49.930;8.606;2023-10-31T12:43:30;1.50;;;0.77;;
21955;SDS011;11142;49.930;8.606;2023-10-31T12:45:59;5.93;;;0.90;;
21955;SDS011;11142;49.930;8.606;2023-10-31T12:48:53;1.95;;;0.90;;
21955;SDS011;11142;49.930;8.606;2023-10-31T12:51:21;7.13;;;0.85;;
21955;SDS011;11142;49.930;8.606;2023-10-31T12:53:50;2.38;;;1.05;;
21955;SDS011;11142;49.930;8.606;2023-10-31T12:59:08;2.15;;;0.93;;
21955;SDS011;11142;49.930;8.606;2023-10-31T13:01:42;0.68;;;0.60;;
21955;SDS011;11142;49.930;8.606;2023-10-31T13:04:11;5.05;;;0.90;;
21955;SDS011;11142;49.930;8.606;2023-10-31T13:06:39;2.00;;;0.77;;
21955;SDS011;11142;49.930;8.606;2023-10-31T13:09:08;1.58;;;0.80;;
21955;SDS011;11142;49.930;8.606;2023-10-31T13:11:41;2.28;;;0.98;;
21955;SDS011;11142;49.930;8.606;2023-10-31T13:14:09;3.55;;;1.00;;
21955;SDS011;11142;49.930;8.606;2023-10-31T13:16:38;2.78;;;0.82;;
21955;SDS011;11142;49.930;8.606;2023-10-31T13:19:06;5.63;;;1.15;;
21955;SDS011;11142;49.930;8.606;2023-10-31T13:21:35;3.53;;;0.80;;
21955;SDS011;11142;49.930;8.606;2023-10-31T13:24:03;6.32;;;1.00;;
21955;SDS011;11142;49.930;8.606;2023-10-31T13:26:34;2.78;;;0.50;;
21955;SDS011;11142;49.930;8.606;2023-10-31T13:29:04;2.58;;;0.65;;
21955;SDS011;11142;49.930;8.606;2023-10-31T13:31:33;4.20;;;0.90;;
21955;SDS011;11142;49.930;8.606;2023-10-31T13:34:01;3.45;;;0.77;;
21955;SDS011;11142;49.930;8.606;2023-10-31T13:36:30;3.53;;;0.80;;
21955;SDS011;11142;49.930;8.606;2023-10-31T13:38:58;3.85;;;0.90;;
21955;SDS011;11142;49.930;8.606;2023-10-31T13:41:27;6.93;;;1.00;;
21955;SDS011;11142;49.930;8.606;2023-10-31T13:43:56;0.80;;;0.50;;
21955;SDS011;11142;49.930;8.606;2023-10-31T13:46:26;4.50;;;0.65;;
21955;SDS011;11142;49.930;8.606;2023-10-31T13:48:55;1.50;;;0.70;;
21955;SDS011;11142;49.930;8.606;2023-10-31T13:51:23;3.22;;;0.90;;
21955;SDS011;11142;49.930;8.606;2023-10-31T13:53:51;4.00;;;1.30;;
21955;SDS011;11142;49.930;8.606;2023-10-31T13:56:19;3.50;;;0.80;;
21955;SDS011;11142;49.930;8.606;2023-10-31T13:58:48;4.43;;;0.85;;
21955;SDS011;11142;49.930;8.606;2023-10-31T14:01:16;4.25;;;1.15;;
21955;SDS011;11142;49.930;8.606;2023-10-31T14:03:47;3.65;;;0.80;;
21955;SDS011;11142;49.930;8.606;2023-10-31T14:06:16;4.30;;;0.60;;
21955;SDS011;11142;49.930;8.606;2023-10-31T14:08:45;3.25;;;0.93;;
21955;SDS011;11142;49.930;8.606;2023-10-31T14:11:14;4.35;;;0.80;;
21955;SDS011;11142;49.930;8.606;2023-10-31T14:13:42;2.30;;;0.55;;
21955;SDS011;11142;49.930;8.606;2023-10-31T14:16:11;4.00;;;0.63;;
21955;SDS011;11142;49.930;8.606;2023-10-31T14:18:40;1.98;;;0.98;;
21955;SDS011;11142;49.930;8.606;2023-10-31T14:21:11;2.42;;;0.60;;
21955;SDS011;11142;49.930;8.606;2023-10-31T14:23:40;1.10;;;0.80;;
21955;SDS011;11142;49.930;8.606;2023-10-31T14:26:08;6.55;;;0.90;;
21955;SDS011;11142;49.930;8.606;2023-10-31T14:28:37;3.13;;;0.68;;
21955;SDS011;11142;49.930;8.606;2023-10-31T14:31:06;1.60;;;0.70;;
21955;SDS011;11142;49.930;8.606;2023-10-31T14:33:34;4.68;;;1.02;;
21955;SDS011;11142;49.930;8.606;2023-10-31T14:36:02;1.02;;;0.52;;
21955;SDS011;11142;49.930;8.606;2023-10-31T14:38:32;2.78;;;1.10;;
21955;SDS011;11142;49.930;8.606;2023-10-31T14:41:03;1.23;;;0.57;;
21955;SDS011;11142;49.930;8.606;2023-10-31T14:43:32;2.08;;;0.80;;
21955;SDS011;11142;49.930;8.606;2023-10-31T14:46:00;5.65;;;0.55;;
21955;SDS011;11142;49.930;8.606;2023-10-31T14:48:30;1.70;;;0.57;;
21955;SDS011;11142;49.930;8.606;2023-10-31T14:50:58;2.30;;;0.80;;
21955;SDS011;11142;49.930;8.606;2023-10-31T14:53:27;1.38;;;0.50;;
21955;SDS011;11142;49.930;8.606;2023-10-31T14:55:58;1.20;;;0.50;;
21955;SDS011;11142;49.930;8.606;2023-10-31T14:58:26;1.40;;;0.52;;
21955;SDS011;11142;49.930;8.606;2023-10-31T15:00:54;3.65;;;0.50;;
21955;SDS011;11142;49.930;8.606;2023-10-31T15:03:24;1.15;;;0.57;;
21955;SDS011;11142;49.930;8.606;2023-10-31T15:05:53;0.77;;;0.43;;